createdAt,value
2023-03-02T00:12:45.802Z,86.6
2023-03-02T00:32:45.930Z,86.1
2023-03-02T00:52:45.838Z,86.4
2023-03-02T01:12:45.874Z,86.1
2023-03-02T01:32:45.918Z,86.4
2023-03-02T01:52:45.719Z,87.4
2023-03-02T02:12:45.877Z,87.7
2023-03-02T02:32:45.889Z,88.4
2023-03-02T02:52:45.728Z,88.5
2023-03-02T03:12:45.735Z,88.4
2023-03-02T03:32:45.722Z,88.7
2023-03-02T03:52:45.816Z,89.3
2023-03-02T04:12:45.737Z,89.6
2023-03-02T04:32:45.735Z,89.6
2023-03-02T04:52:45.744Z,89.8
2023-03-02T05:12:45.745Z,89.5
2023-03-02T05:32:45.756Z,89.8
2023-03-02T05:52:45.756Z,90.2
2023-03-02T06:12:45.784Z,90.2
2023-03-02T06:32:45.777Z,90.3
2023-03-02T06:52:45.810Z,90.6
2023-03-02T07:12:45.775Z,90.6
2023-03-02T07:32:45.878Z,90.0
2023-03-02T07:52:49.006Z,88.8
2023-03-02T08:12:45.892Z,86.9
2023-03-02T08:32:45.807Z,84.9
2023-03-02T08:52:45.816Z,83.2
2023-03-02T09:12:45.807Z,81.4
2023-03-02T09:32:45.888Z,79.8
2023-03-02T09:52:45.945Z,77.6
2023-03-02T10:12:45.841Z,74.5
2023-03-02T10:32:45.859Z,72.4
2023-03-02T10:52:45.848Z,71.2
2023-03-02T11:12:45.755Z,70.0
2023-03-02T11:32:45.778Z,66.7
2023-03-02T11:52:45.794Z,67.3
2023-03-02T12:12:45.989Z,65.6
2023-03-02T12:32:45.875Z,64.4
2023-03-02T12:52:45.824Z,62.7
2023-03-02T13:12:45.928Z,60.6
2023-03-02T13:32:45.752Z,62.2
2023-03-02T13:52:45.674Z,60.3
2023-03-02T14:12:45.771Z,61.4
2023-03-02T14:32:45.672Z,62.3
2023-03-02T14:52:45.603Z,62.0
2023-03-02T15:12:45.615Z,61.6
2023-03-02T15:32:45.640Z,62.6
2023-03-02T15:52:45.655Z,63.8
2023-03-02T16:12:45.578Z,67.5
2023-03-02T16:32:45.589Z,74.0
2023-03-02T16:52:45.676Z,77.5
2023-03-02T17:12:45.635Z,79.7
2023-03-02T17:32:45.509Z,80.6
2023-03-02T17:52:45.522Z,81.9
2023-03-02T18:12:45.637Z,83.2
2023-03-02T18:32:45.526Z,83.7
2023-03-02T18:52:45.530Z,84.6
2023-03-02T19:12:45.632Z,85.1
2023-03-02T19:32:45.545Z,85.7
2023-03-02T19:52:45.575Z,85.5
2023-03-02T20:12:45.581Z,86.1
2023-03-02T20:32:45.620Z,86.9
2023-03-02T20:52:45.569Z,86.8
2023-03-02T21:12:45.559Z,87.1
2023-03-02T21:32:45.665Z,87.6
2023-03-02T21:52:45.559Z,87.5
2023-03-02T22:12:45.584Z,88.0
2023-03-02T22:32:45.560Z,87.7
2023-03-02T22:52:45.621Z,88.5
2023-03-02T23:12:45.578Z,88.5
2023-03-02T23:32:45.632Z,89.1
2023-03-02T23:52:45.576Z,88.5
